Airfield :







YOU CAN JOIN US ON...

 
LOGIN :

Register | Disclaimer

   EN    FR    IT 

 









Legend :    VFR   Marginal VFR   IFR   Intensive IFR   Very Intensive IFR
Visi :
Ceiling :
>= 8 km
>= 3000ft
5 to 8 km
1000 to 3000 ft
1500m to 5 km
500 to 1000 ft
800 to 1500m
200 to 500 ft
< 800m
< 200 ft
Symbols :   Thunderstorms  Fog  Heavy snow  Heavy precipitations  Wind > 20 kt






- Airport Elevation : 1663 ft
- IATA code : SLK


KSLK - Adirondack Regional

CURRENT METAR :
  • 071151Z AUTO 00000KT 10SM CLR 17/10 A3009 RMK AO2 SLP183 T01720100 10172 20078 58001

EXPIRED METARs :
  • 071051Z AUTO 00000KT 10SM CLR 13/09 A3010 RMK AO2 SLP184 T01280094
  • 070951Z AUTO 00000KT 10SM CLR 08/06 A3010 RMK AO2 SLP188 T00780061

TAF KSLK
Valid from the 07 at 12:00 until the 08 at 12:00 UTC


071139Z 0712/0812 21007KT P6SM FEW200
FM071800 19009KT P6SM VCSH BKN050
FM072200 19007KT P6SM SCT050
FM080900 22007KT P6SM VCSH BKN012
KZBW FIR / North America



MET'MAP, your aeronautical weather chart ! - Copyright ORBIFLY December 2007 - Disclaimer

ORBIFLY MET'MAP TEAM :

Programming & Development : Alexandra Zaïnal
Concept & original design : Baudouin d'Aumeries
Assistance for programming : Marc-Olivier Méhu
Technical & hardware support : Manuel Goepfert

Contact : metmap@orbifly.com




SOURCES & CREDITS :

   NOAA